createdAt,value
2019-05-18T00:00:47.731Z,414.00
2019-05-18T00:01:47.749Z,414.56
2019-05-18T00:02:47.711Z,414.70
2019-05-18T00:03:47.697Z,414.17
2019-05-18T00:04:47.692Z,414.48
2019-05-18T00:05:47.683Z,414.51
2019-05-18T00:06:47.666Z,414.54
2019-05-18T00:07:47.660Z,414.35
2019-05-18T00:08:47.639Z,414.37
2019-05-18T00:09:47.635Z,413.65
2019-05-18T00:10:47.637Z,414.23
2019-05-18T00:11:47.605Z,413.94
2019-05-18T00:12:47.610Z,414.37
2019-05-18T00:13:47.588Z,414.49
2019-05-18T00:14:47.577Z,414.45
2019-05-18T00:15:47.805Z,414.46
2019-05-18T00:16:47.544Z,414.51
2019-05-18T00:17:47.575Z,414.23
2019-05-18T00:18:47.560Z,414.41
2019-05-18T00:19:47.514Z,414.63
2019-05-18T00:20:47.503Z,414.83
2019-05-18T00:21:47.542Z,414.53
2019-05-18T00:22:47.488Z,414.40
2019-05-18T00:23:47.469Z,414.23
2019-05-18T00:24:47.458Z,414.45
2019-05-18T00:25:47.447Z,414.24
2019-05-18T00:26:47.442Z,414.40
2019-05-18T00:27:47.429Z,414.25
2019-05-18T00:28:47.419Z,414.63
2019-05-18T00:29:47.421Z,414.68
2019-05-18T00:30:47.396Z,414.56
2019-05-18T00:31:47.379Z,414.73
2019-05-18T00:32:47.382Z,414.20
2019-05-18T00:33:47.355Z,414.62
2019-05-18T00:34:47.352Z,414.63
2019-05-18T00:35:47.338Z,414.57
2019-05-18T00:36:47.325Z,414.12
2019-05-18T00:37:47.309Z,414.30
2019-05-18T00:38:47.316Z,414.27
2019-05-18T00:39:47.296Z,414.55
2019-05-18T00:40:47.304Z,414.29
2019-05-18T00:41:47.260Z,414.76
2019-05-18T00:42:47.253Z,414.59
2019-05-18T00:43:47.244Z,414.20
2019-05-18T00:44:47.236Z,414.37
2019-05-18T00:45:47.221Z,414.56
2019-05-18T00:46:47.234Z,414.73
2019-05-18T00:47:47.207Z,414.26
2019-05-18T00:48:47.186Z,414.11
2019-05-18T00:49:47.185Z,414.52
2019-05-18T00:50:47.167Z,414.55
2019-05-18T00:51:47.163Z,414.64
2019-05-18T00:52:47.144Z,414.46
2019-05-18T00:53:47.130Z,414.52
2019-05-18T00:54:47.120Z,414.64
2019-05-18T00:55:47.110Z,414.67
2019-05-18T00:56:47.114Z,414.36
2019-05-18T00:57:47.100Z,414.80
2019-05-18T00:58:47.077Z,414.95
2019-05-18T00:59:47.065Z,414.56
2019-05-18T01:00:47.052Z,413.85
2019-05-18T01:01:47.054Z,414.45
2019-05-18T01:02:47.045Z,414.55
2019-05-18T01:03:47.024Z,414.35
2019-05-18T01:04:47.013Z,414.49
2019-05-18T01:05:46.995Z,414.08
2019-05-18T01:06:47.016Z,414.65
2019-05-18T01:07:46.977Z,414.73
2019-05-18T01:08:46.978Z,414.47
2019-05-18T01:09:46.959Z,414.61
2019-05-18T01:10:46.948Z,414.33
2019-05-18T01:11:46.937Z,414.64
2019-05-18T01:12:46.923Z,414.58
2019-05-18T01:13:46.910Z,414.64
2019-05-18T01:14:46.925Z,414.70
2019-05-18T01:15:46.886Z,414.81
2019-05-18T01:16:46.879Z,414.81
2019-05-18T01:17:57.061Z,414.20
2019-05-18T01:18:47.881Z,414.62
2019-05-18T01:19:46.862Z,414.43
2019-05-18T01:20:46.843Z,414.11
2019-05-18T01:21:46.824Z,414.51
2019-05-18T01:22:46.808Z,414.44
2019-05-18T01:23:46.824Z,414.32
2019-05-18T01:24:46.785Z,415.05
2019-05-18T01:25:46.820Z,414.15
2019-05-18T01:26:46.806Z,414.72
2019-05-18T01:27:46.753Z,414.27
2019-05-18T01:28:47.033Z,414.95
2019-05-18T01:29:46.740Z,414.76
2019-05-18T01:30:46.728Z,414.90
2019-05-18T01:31:46.731Z,414.65
2019-05-18T01:32:46.701Z,414.77
2019-05-18T01:33:46.692Z,414.48
2019-05-18T01:34:46.675Z,414.48
2019-05-18T01:35:46.663Z,414.22
2019-05-18T01:36:46.684Z,414.80
2019-05-18T01:37:46.660Z,414.66
2019-05-18T01:38:46.633Z,414.27
2019-05-18T01:39:46.619Z,414.62
2019-05-18T01:40:46.606Z,414.31
2019-05-18T01:41:46.603Z,414.44
2019-05-18T01:42:46.617Z,414.69
2019-05-18T01:43:46.575Z,414.63
2019-05-18T01:44:46.564Z,415.07
2019-05-18T01:45:46.557Z,414.50
2019-05-18T01:46:46.545Z,415.01
2019-05-18T01:47:46.539Z,414.38
2019-05-18T01:48:46.535Z,414.68
2019-05-18T01:49:46.514Z,414.65
2019-05-18T01:50:46.499Z,414.27
2019-05-18T01:51:46.504Z,414.52
2019-05-18T01:52:46.471Z,414.55
2019-05-18T01:53:46.477Z,414.52
2019-05-18T01:54:46.447Z,414.75
2019-05-18T01:55:46.465Z,414.64
2019-05-18T01:56:46.434Z,414.43
2019-05-18T01:57:46.427Z,414.61
2019-05-18T01:58:46.415Z,414.32
2019-05-18T01:59:46.408Z,414.41
2019-05-18T02:00:46.385Z,414.45
2019-05-18T02:01:46.380Z,414.70
2019-05-18T02:02:46.364Z,414.91
2019-05-18T02:03:46.355Z,414.78
2019-05-18T02:04:46.340Z,414.59
2019-05-18T02:05:46.349Z,414.68
2019-05-18T02:06:46.363Z,414.86
2019-05-18T02:07:46.306Z,414.31
2019-05-18T02:08:46.332Z,414.69
2019-05-18T02:09:46.286Z,414.52
2019-05-18T02:10:46.276Z,414.78
2019-05-18T02:11:46.264Z,414.47
2019-05-18T02:12:46.252Z,414.34
2019-05-18T02:13:46.245Z,414.52
2019-05-18T02:14:46.240Z,414.65
2019-05-18T02:15:46.222Z,414.46
2019-05-18T02:16:46.221Z,414.69
2019-05-18T02:17:46.200Z,415.14
2019-05-18T02:18:46.204Z,414.85
2019-05-18T02:19:46.176Z,414.93
2019-05-18T02:20:46.163Z,414.60
2019-05-18T02:21:46.166Z,414.62
2019-05-18T02:22:46.142Z,414.34
2019-05-18T02:23:46.136Z,414.51
2019-05-18T02:24:46.118Z,414.99
2019-05-18T02:25:46.122Z,414.92
2019-05-18T02:26:46.097Z,414.79
2019-05-18T02:27:46.110Z,414.77
2019-05-18T02:28:46.110Z,414.44
2019-05-18T02:29:46.065Z,414.80
2019-05-18T02:30:46.055Z,414.54
2019-05-18T02:31:46.075Z,414.62
2019-05-18T02:32:46.034Z,414.85
2019-05-18T02:33:46.032Z,414.60
2019-05-18T02:34:46.018Z,414.65
2019-05-18T02:35:45.997Z,414.25
2019-05-18T02:36:45.978Z,414.72
2019-05-18T02:37:45.989Z,414.53
2019-05-18T02:38:45.966Z,414.91
2019-05-18T02:39:45.953Z,414.93
2019-05-18T02:40:45.952Z,414.62
2019-05-18T02:41:45.955Z,414.81
2019-05-18T02:42:45.928Z,414.60
2019-05-18T02:43:45.912Z,414.96
2019-05-18T02:44:45.930Z,414.63
2019-05-18T02:45:45.887Z,414.79
2019-05-18T02:46:45.897Z,414.99
2019-05-18T02:47:45.864Z,414.80
2019-05-18T02:48:50.059Z,414.94
2019-05-18T02:49:45.847Z,414.85
2019-05-18T02:50:45.866Z,414.62
2019-05-18T02:51:45.826Z,414.77
2019-05-18T02:52:45.814Z,414.86
2019-05-18T02:53:45.899Z,414.25
2019-05-18T02:54:45.800Z,415.18
2019-05-18T02:55:45.789Z,414.87
2019-05-18T02:56:45.766Z,414.73
2019-05-18T02:57:45.761Z,414.94
2019-05-18T02:58:45.741Z,414.78
2019-05-18T02:59:45.737Z,414.83
2019-05-18T03:00:45.731Z,414.57
2019-05-18T03:01:45.738Z,414.81
2019-05-18T03:02:45.726Z,414.72
2019-05-18T03:03:45.694Z,414.81
2019-05-18T03:04:45.680Z,414.91
2019-05-18T03:05:45.669Z,414.89
2019-05-18T03:06:45.683Z,414.55
2019-05-18T03:07:45.660Z,414.86
2019-05-18T03:08:45.633Z,414.55
2019-05-18T03:09:45.621Z,414.51
2019-05-18T03:10:45.612Z,414.23
2019-05-18T03:11:45.601Z,414.30
2019-05-18T03:12:45.599Z,414.74
2019-05-18T03:13:45.586Z,414.48
2019-05-18T03:14:45.635Z,414.78
2019-05-18T03:15:45.555Z,415.22
2019-05-18T03:16:45.550Z,415.21
2019-05-18T03:17:45.539Z,414.81
2019-05-18T03:18:45.547Z,414.49
2019-05-18T03:19:45.514Z,414.95
2019-05-18T03:20:45.516Z,414.97
2019-05-18T03:21:45.492Z,414.72
2019-05-18T03:22:45.485Z,414.61
2019-05-18T03:23:45.501Z,414.96
2019-05-18T03:24:45.483Z,414.94
2019-05-18T03:25:45.449Z,414.45
2019-05-18T03:26:45.435Z,415.06
2019-05-18T03:27:45.438Z,414.85
2019-05-18T03:28:45.468Z,415.17
2019-05-18T03:29:45.418Z,415.19
2019-05-18T03:30:45.389Z,414.85
2019-05-18T03:31:45.457Z,414.91
2019-05-18T03:32:45.365Z,415.01
2019-05-18T03:33:45.371Z,415.17
2019-05-18T03:34:45.366Z,415.29
2019-05-18T03:35:45.355Z,415.36
2019-05-18T03:36:45.329Z,415.22
2019-05-18T03:37:45.317Z,415.48
2019-05-18T03:38:45.303Z,415.55
2019-05-18T03:39:45.298Z,415.65
2019-05-18T03:40:45.340Z,415.56
2019-05-18T03:41:45.278Z,415.68
2019-05-18T03:42:45.254Z,415.95
2019-05-18T03:43:45.242Z,415.65
2019-05-18T03:44:45.234Z,415.75
2019-05-18T03:45:45.221Z,415.64
2019-05-18T03:46:45.229Z,416.02
2019-05-18T03:47:45.201Z,416.10
2019-05-18T03:48:45.230Z,415.72
2019-05-18T03:49:45.198Z,416.01
2019-05-18T03:50:45.170Z,415.96
2019-05-18T03:51:45.153Z,416.06
2019-05-18T03:52:45.161Z,416.09
2019-05-18T03:53:45.130Z,416.50
2019-05-18T03:54:45.118Z,416.43
2019-05-18T03:55:45.114Z,416.24
2019-05-18T03:56:45.096Z,416.44
2019-05-18T03:57:45.087Z,416.10
2019-05-18T03:58:45.073Z,416.30
2019-05-18T03:59:45.067Z,416.50
2019-05-18T04:00:45.053Z,416.71
2019-05-18T04:01:45.050Z,416.55
2019-05-18T04:02:45.035Z,416.10
2019-05-18T04:03:45.037Z,416.52
2019-05-18T04:04:45.084Z,416.48
2019-05-18T04:05:44.997Z,416.66
2019-05-18T04:06:45.000Z,416.20
2019-05-18T04:07:44.978Z,416.30
2019-05-18T04:08:44.991Z,415.86
2019-05-18T04:09:44.955Z,415.98
2019-05-18T04:10:44.942Z,415.83
2019-05-18T04:11:44.928Z,415.64
2019-05-18T04:12:45.003Z,416.16
2019-05-18T04:13:44.904Z,415.50
2019-05-18T04:14:44.911Z,416.14
2019-05-18T04:15:44.881Z,415.59
2019-05-18T04:16:44.874Z,416.19
2019-05-18T04:17:44.869Z,416.11
2019-05-18T04:18:44.971Z,415.88
2019-05-18T04:19:47.363Z,415.60
2019-05-18T04:20:44.857Z,415.97
2019-05-18T04:21:44.818Z,415.48
2019-05-18T04:22:44.799Z,415.66
2019-05-18T04:23:44.816Z,416.01
2019-05-18T04:24:44.797Z,415.70
2019-05-18T04:25:44.786Z,415.85
2019-05-18T04:26:44.753Z,415.97
2019-05-18T04:27:44.749Z,415.43
2019-05-18T04:28:44.734Z,415.48
2019-05-18T04:29:44.729Z,415.52
2019-05-18T04:30:44.718Z,415.88
2019-05-18T04:31:44.725Z,415.48
2019-05-18T04:32:44.692Z,415.71
2019-05-18T04:33:44.688Z,415.63
2019-05-18T04:34:44.688Z,415.18
2019-05-18T04:35:44.657Z,415.28
2019-05-18T04:36:44.652Z,415.46
2019-05-18T04:37:44.631Z,415.45
2019-05-18T04:38:44.626Z,414.57
2019-05-18T04:39:44.613Z,414.91
2019-05-18T04:40:44.601Z,414.87
2019-05-18T04:41:44.603Z,415.17
2019-05-18T04:42:44.597Z,415.44
2019-05-18T04:43:44.569Z,415.29
2019-05-18T04:44:44.555Z,415.79
2019-05-18T04:45:44.552Z,415.80
2019-05-18T04:46:44.527Z,415.70
2019-05-18T04:47:48.317Z,415.95
2019-05-18T04:48:44.512Z,416.52
2019-05-18T04:49:44.506Z,416.65
2019-05-18T04:50:44.492Z,416.39
2019-05-18T04:51:44.474Z,416.55
2019-05-18T04:52:44.467Z,417.05
2019-05-18T04:53:44.459Z,416.70
2019-05-18T04:54:44.461Z,416.99
2019-05-18T04:55:44.455Z,416.99
2019-05-18T04:56:44.449Z,417.04
2019-05-18T04:57:44.407Z,417.12
2019-05-18T04:58:44.410Z,417.10
2019-05-18T04:59:44.411Z,417.42
2019-05-18T05:00:44.377Z,417.33
2019-05-18T05:01:44.369Z,417.07
2019-05-18T05:02:45.369Z,417.12
2019-05-18T05:03:44.343Z,417.04
2019-05-18T05:04:44.337Z,417.26
2019-05-18T05:05:44.319Z,416.06
2019-05-18T05:06:44.310Z,417.17
2019-05-18T05:07:44.297Z,416.93
2019-05-18T05:08:44.284Z,417.30
2019-05-18T05:09:44.270Z,417.02
2019-05-18T05:10:44.276Z,416.72
2019-05-18T05:11:44.247Z,416.90
2019-05-18T05:12:44.243Z,417.00
2019-05-18T05:13:44.238Z,416.45
2019-05-18T05:14:44.214Z,416.21
2019-05-18T05:15:44.205Z,416.44
2019-05-18T05:16:44.196Z,416.31
2019-05-18T05:17:44.190Z,416.18
2019-05-18T05:18:44.175Z,415.98
2019-05-18T05:19:44.160Z,416.45
2019-05-18T05:20:44.187Z,416.25
2019-05-18T05:21:44.141Z,415.79
2019-05-18T05:22:44.168Z,415.74
2019-05-18T05:23:44.139Z,414.93
2019-05-18T05:24:44.104Z,414.93
2019-05-18T05:25:44.090Z,415.10
2019-05-18T05:26:44.091Z,414.94
2019-05-18T05:27:44.094Z,414.57
2019-05-18T05:28:44.061Z,414.42
2019-05-18T05:29:44.049Z,414.61
2019-05-18T05:30:44.037Z,413.81
2019-05-18T05:31:44.029Z,414.49
2019-05-18T05:32:44.036Z,413.58
2019-05-18T05:33:44.009Z,413.29
2019-05-18T05:34:44.000Z,412.69
2019-05-18T05:35:43.981Z,412.59
2019-05-18T05:36:43.973Z,412.37
2019-05-18T05:37:43.965Z,411.92
2019-05-18T05:38:43.959Z,411.82
2019-05-18T05:39:43.963Z,411.58
2019-05-18T05:40:43.925Z,411.27
2019-05-18T05:41:43.931Z,411.20
2019-05-18T05:42:44.495Z,411.21
2019-05-18T05:43:43.909Z,411.33
2019-05-18T05:44:43.915Z,410.84
2019-05-18T05:45:43.867Z,410.69
2019-05-18T05:46:43.859Z,410.77
2019-05-18T05:47:43.865Z,410.78
2019-05-18T05:48:43.837Z,410.48
2019-05-18T05:49:43.833Z,409.77
2019-05-18T05:50:43.823Z,410.87
2019-05-18T05:51:43.801Z,410.37
2019-05-18T05:52:43.794Z,410.64
2019-05-18T05:53:43.785Z,410.19
2019-05-18T05:54:43.823Z,410.30
2019-05-18T05:55:43.780Z,410.09
2019-05-18T05:56:43.745Z,410.99
2019-05-18T05:57:43.739Z,410.75
2019-05-18T05:58:43.724Z,410.84
2019-05-18T05:59:43.717Z,410.81
2019-05-18T06:00:43.718Z,410.61
2019-05-18T06:01:43.883Z,410.73
2019-05-18T06:02:43.676Z,410.58
2019-05-18T06:03:43.682Z,411.60
2019-05-18T06:04:43.672Z,410.91
2019-05-18T06:05:43.654Z,411.35
2019-05-18T06:06:43.709Z,410.66
2019-05-18T06:07:43.626Z,411.40
2019-05-18T06:08:43.616Z,411.07
2019-05-18T06:09:43.600Z,411.15
2019-05-18T06:10:43.596Z,411.92
2019-05-18T06:11:43.590Z,411.78
2019-05-18T06:12:43.567Z,411.01
2019-05-18T06:13:43.560Z,411.56
2019-05-18T06:14:43.546Z,411.49
2019-05-18T06:15:43.544Z,411.76
2019-05-18T06:16:43.521Z,411.72
2019-05-18T06:17:43.536Z,411.42
2019-05-18T06:18:43.526Z,411.36
2019-05-18T06:19:43.488Z,411.17
2019-05-18T06:20:51.534Z,411.72
2019-05-18T06:21:44.462Z,411.57
2019-05-18T06:22:43.455Z,411.89
2019-05-18T06:23:43.464Z,411.91
2019-05-18T06:24:43.431Z,411.34
2019-05-18T06:25:43.420Z,411.54
2019-05-18T06:26:43.404Z,412.12
2019-05-18T06:27:43.413Z,411.95
2019-05-18T06:28:43.388Z,411.67
2019-05-18T06:29:43.376Z,412.12
2019-05-18T06:30:43.366Z,411.58
2019-05-18T06:31:43.389Z,412.11
2019-05-18T06:32:43.339Z,412.00
2019-05-18T06:33:43.328Z,412.11
2019-05-18T06:34:43.332Z,412.30
2019-05-18T06:35:43.959Z,411.96
2019-05-18T06:36:43.292Z,412.46
2019-05-18T06:37:43.284Z,412.05
2019-05-18T06:38:43.284Z,412.41
2019-05-18T06:39:43.255Z,412.37
2019-05-18T06:40:43.246Z,412.09
2019-05-18T06:41:43.234Z,412.45
2019-05-18T06:42:43.224Z,412.58
2019-05-18T06:43:43.228Z,412.60
2019-05-18T06:44:43.214Z,412.89
2019-05-18T06:45:43.238Z,413.13
2019-05-18T06:46:43.230Z,412.68
2019-05-18T06:47:43.174Z,412.96
2019-05-18T06:48:43.173Z,412.63
2019-05-18T06:49:43.161Z,412.62
2019-05-18T06:50:43.151Z,412.76
2019-05-18T06:51:43.119Z,412.84
2019-05-18T06:52:43.112Z,412.87
2019-05-18T06:53:43.098Z,412.58
2019-05-18T06:54:43.088Z,412.66
2019-05-18T06:55:43.082Z,413.13
2019-05-18T06:56:43.100Z,413.38
2019-05-18T06:57:43.051Z,412.92
2019-05-18T06:58:43.042Z,412.79
2019-05-18T06:59:43.049Z,413.03
2019-05-18T07:00:43.016Z,413.05
2019-05-18T07:01:43.015Z,412.66
2019-05-18T07:02:42.997Z,413.23
2019-05-18T07:03:45.043Z,413.15
2019-05-18T07:04:44.683Z,413.15
2019-05-18T07:05:42.965Z,412.92
2019-05-18T07:06:42.957Z,413.50
2019-05-18T07:07:42.989Z,413.21
2019-05-18T07:08:42.928Z,412.60
2019-05-18T07:09:42.911Z,412.88
2019-05-18T07:10:42.910Z,412.97
2019-05-18T07:11:42.913Z,413.27
2019-05-18T07:12:42.901Z,413.36
2019-05-18T07:13:42.890Z,413.43
2019-05-18T07:14:42.864Z,413.34
2019-05-18T07:15:42.850Z,413.40
2019-05-18T07:16:42.839Z,413.47
2019-05-18T07:17:42.826Z,413.59
2019-05-18T07:18:42.840Z,413.19
2019-05-18T07:19:42.803Z,413.23
2019-05-18T07:20:42.789Z,413.59
2019-05-18T07:21:42.781Z,412.73
2019-05-18T07:22:42.772Z,413.12
2019-05-18T07:23:43.922Z,413.10
2019-05-18T07:24:42.743Z,413.44
2019-05-18T07:25:42.734Z,413.50
2019-05-18T07:26:42.729Z,413.15
2019-05-18T07:27:42.715Z,413.64
2019-05-18T07:28:42.705Z,413.17
2019-05-18T07:29:42.708Z,413.34
2019-05-18T07:30:42.675Z,413.38
2019-05-18T07:31:42.663Z,413.45
2019-05-18T07:32:42.651Z,413.84
2019-05-18T07:33:42.645Z,413.77
2019-05-18T07:34:42.641Z,413.10
2019-05-18T07:35:42.644Z,413.19
2019-05-18T07:36:42.612Z,413.07
2019-05-18T07:37:42.599Z,413.51
2019-05-18T07:38:42.607Z,413.05
2019-05-18T07:39:42.574Z,413.18
2019-05-18T07:40:42.564Z,413.26
2019-05-18T07:41:46.911Z,413.16
2019-05-18T07:42:42.541Z,413.34
2019-05-18T07:43:42.550Z,413.62
2019-05-18T07:44:42.518Z,413.18
2019-05-18T07:45:42.515Z,412.94
2019-05-18T07:46:42.520Z,413.40
2019-05-18T07:47:42.479Z,413.20
2019-05-18T07:48:42.475Z,413.57
2019-05-18T07:49:42.461Z,413.24
2019-05-18T07:50:42.455Z,413.50
2019-05-18T07:51:42.459Z,412.92
2019-05-18T07:52:42.449Z,413.18
2019-05-18T07:53:42.420Z,413.19
2019-05-18T07:54:42.402Z,412.90
2019-05-18T07:55:42.391Z,412.93
2019-05-18T07:56:42.394Z,413.28
2019-05-18T07:57:42.414Z,413.18
2019-05-18T07:58:42.354Z,413.43
2019-05-18T07:59:42.394Z,413.12
2019-05-18T08:00:42.341Z,413.16
2019-05-18T08:01:42.334Z,413.98
2019-05-18T08:02:42.329Z,413.09
2019-05-18T08:03:42.296Z,413.36
2019-05-18T08:04:42.284Z,413.40
2019-05-18T08:05:42.273Z,413.55
2019-05-18T08:06:42.266Z,413.02
2019-05-18T08:07:42.260Z,412.98
2019-05-18T08:08:42.247Z,412.77
2019-05-18T08:09:42.227Z,412.94
2019-05-18T08:10:43.784Z,412.75
2019-05-18T08:11:42.253Z,413.15
2019-05-18T08:12:42.228Z,413.29
2019-05-18T08:13:42.188Z,413.27
2019-05-18T08:14:42.175Z,413.35
2019-05-18T08:15:42.159Z,412.98
2019-05-18T08:16:42.153Z,413.28
2019-05-18T08:17:42.149Z,412.83
2019-05-18T08:18:42.146Z,412.97
2019-05-18T08:19:42.133Z,413.34
2019-05-18T08:20:42.102Z,413.54
2019-05-18T08:21:52.686Z,413.14
2019-05-18T08:22:43.078Z,413.31
2019-05-18T08:23:42.069Z,413.40
2019-05-18T08:24:42.083Z,413.25
2019-05-18T08:25:42.041Z,413.42
2019-05-18T08:26:42.032Z,412.96
2019-05-18T08:27:42.019Z,413.47
2019-05-18T08:28:42.035Z,413.43
2019-05-18T08:29:42.002Z,413.36
2019-05-18T08:30:42.001Z,413.55
2019-05-18T08:31:41.981Z,413.43
2019-05-18T08:32:41.974Z,413.24
2019-05-18T08:33:41.953Z,413.13
2019-05-18T08:34:41.947Z,412.88
2019-05-18T08:35:41.941Z,413.52
2019-05-18T08:36:41.947Z,413.65
2019-05-18T08:37:41.914Z,413.17
2019-05-18T08:38:41.891Z,413.58
2019-05-18T08:39:41.897Z,413.70
2019-05-18T08:40:41.931Z,413.77
2019-05-18T08:41:41.870Z,413.38
2019-05-18T08:42:41.852Z,413.40
2019-05-18T08:43:41.839Z,413.42
2019-05-18T08:44:41.847Z,413.35
2019-05-18T08:45:41.818Z,413.18
2019-05-18T08:46:41.810Z,413.25
2019-05-18T08:47:41.809Z,413.37
2019-05-18T08:48:41.790Z,413.10
2019-05-18T08:49:41.768Z,413.19
2019-05-18T08:50:41.794Z,413.20
2019-05-18T08:51:41.758Z,413.17
2019-05-18T08:52:41.748Z,413.62
2019-05-18T08:53:41.724Z,413.41
2019-05-18T08:54:41.715Z,413.18
2019-05-18T08:55:41.712Z,412.79
2019-05-18T08:56:41.694Z,413.40
2019-05-18T08:57:41.688Z,413.36
2019-05-18T08:58:41.693Z,412.94
2019-05-18T08:59:41.705Z,413.15
2019-05-18T09:00:41.664Z,412.93
2019-05-18T09:01:41.663Z,413.42
2019-05-18T09:02:41.624Z,413.30
2019-05-18T09:03:41.617Z,413.31
2019-05-18T09:04:41.597Z,413.72
2019-05-18T09:05:41.590Z,413.31
2019-05-18T09:06:41.594Z,413.35
2019-05-18T09:07:41.557Z,413.16
2019-05-18T09:08:41.555Z,413.42
2019-05-18T09:09:41.564Z,413.07
2019-05-18T09:10:41.531Z,413.62
2019-05-18T09:11:41.524Z,413.93
2019-05-18T09:12:41.504Z,413.44
2019-05-18T09:13:41.502Z,413.33
2019-05-18T09:14:41.489Z,413.59
2019-05-18T09:15:41.530Z,413.54
2019-05-18T09:16:41.468Z,413.40
2019-05-18T09:17:41.454Z,413.51
2019-05-18T09:18:41.458Z,413.50
2019-05-18T09:19:41.454Z,412.93
2019-05-18T09:20:41.434Z,413.19
2019-05-18T09:21:41.410Z,413.21
2019-05-18T09:22:41.397Z,412.67
2019-05-18T09:23:41.384Z,412.97
2019-05-18T09:24:41.396Z,412.89
2019-05-18T09:25:41.372Z,413.29
2019-05-18T09:26:41.350Z,412.98
2019-05-18T09:27:41.339Z,413.25
2019-05-18T09:28:41.327Z,413.34
2019-05-18T09:29:41.367Z,413.27
2019-05-18T09:30:41.493Z,413.47
2019-05-18T09:31:41.300Z,413.36
2019-05-18T09:32:41.293Z,412.53
2019-05-18T09:33:41.273Z,413.72
2019-05-18T09:34:41.344Z,413.39
2019-05-18T09:35:41.244Z,413.42
2019-05-18T09:36:41.255Z,413.19
2019-05-18T09:37:41.247Z,413.46
2019-05-18T09:38:41.417Z,413.27
2019-05-18T09:39:41.252Z,413.37
2019-05-18T09:40:41.197Z,413.40
2019-05-18T09:41:41.208Z,413.30
2019-05-18T09:42:41.176Z,412.84
2019-05-18T09:43:41.161Z,413.52
2019-05-18T09:44:41.150Z,414.02
2019-05-18T09:45:41.138Z,413.39
2019-05-18T09:46:41.126Z,412.96
2019-05-18T09:47:41.128Z,413.51
2019-05-18T09:48:41.100Z,413.48
2019-05-18T09:49:41.105Z,413.39
2019-05-18T09:50:41.209Z,413.12
2019-05-18T09:51:41.080Z,413.33
2019-05-18T09:52:45.194Z,412.98
2019-05-18T09:53:51.046Z,413.66
2019-05-18T09:54:42.032Z,413.24
2019-05-18T09:55:41.024Z,413.30
2019-05-18T09:56:41.009Z,413.22
2019-05-18T09:57:40.998Z,413.45
2019-05-18T09:58:40.995Z,413.11
2019-05-18T09:59:40.996Z,413.57
2019-05-18T10:00:41.046Z,413.15
2019-05-18T10:01:40.960Z,413.50
2019-05-18T10:02:40.968Z,413.10
2019-05-18T10:03:41.124Z,413.12
2019-05-18T10:04:40.944Z,413.00
2019-05-18T10:05:40.923Z,413.25
2019-05-18T10:06:40.910Z,413.17
2019-05-18T10:07:40.895Z,413.28
2019-05-18T10:08:40.896Z,413.15
2019-05-18T10:09:40.864Z,413.27
2019-05-18T10:10:40.937Z,413.36
2019-05-18T10:11:40.839Z,413.57
2019-05-18T10:12:40.833Z,413.30
2019-05-18T10:13:40.820Z,412.69
2019-05-18T10:14:40.834Z,413.10
2019-05-18T10:15:40.798Z,413.34
2019-05-18T10:16:40.815Z,413.15
2019-05-18T10:17:40.786Z,413.21
2019-05-18T10:18:40.769Z,413.08
2019-05-18T10:19:40.766Z,413.06
2019-05-18T10:20:40.745Z,413.08
2019-05-18T10:21:40.762Z,413.23
2019-05-18T10:22:53.357Z,413.35
2019-05-18T10:23:41.703Z,413.01
2019-05-18T10:24:40.701Z,413.34
2019-05-18T10:25:40.680Z,413.07
2019-05-18T10:26:40.681Z,413.15
2019-05-18T10:27:40.684Z,412.96
2019-05-18T10:28:40.652Z,413.44
2019-05-18T10:29:40.666Z,413.71
2019-05-18T10:30:40.637Z,413.14
2019-05-18T10:31:40.632Z,412.85
2019-05-18T10:32:40.625Z,412.73
2019-05-18T10:33:40.618Z,412.83
2019-05-18T10:34:40.582Z,412.95
2019-05-18T10:35:40.576Z,412.73
2019-05-18T10:36:40.577Z,412.43
2019-05-18T10:37:40.551Z,412.80
2019-05-18T10:38:40.563Z,412.77
2019-05-18T10:39:40.526Z,412.95
2019-05-18T10:40:40.516Z,412.52
2019-05-18T10:41:40.502Z,412.75
2019-05-18T10:42:40.527Z,412.97
2019-05-18T10:43:40.492Z,412.89
2019-05-18T10:44:40.486Z,412.54
2019-05-18T10:45:44.559Z,412.68
2019-05-18T10:46:40.481Z,412.22
2019-05-18T10:47:40.449Z,412.37
2019-05-18T10:48:40.437Z,412.33
2019-05-18T10:49:40.420Z,412.76
2019-05-18T10:50:40.402Z,412.49
2019-05-18T10:51:40.392Z,412.04
2019-05-18T10:52:40.381Z,412.55
2019-05-18T10:53:40.372Z,412.53
2019-05-18T10:54:40.429Z,412.32
2019-05-18T10:55:40.404Z,411.77
2019-05-18T10:56:40.380Z,412.15
2019-05-18T10:57:40.325Z,412.61
2019-05-18T10:58:40.315Z,411.88
2019-05-18T10:59:40.333Z,412.26
2019-05-18T11:00:40.291Z,412.39
2019-05-18T11:01:43.593Z,412.39
2019-05-18T11:02:40.364Z,412.38
2019-05-18T11:03:40.268Z,412.17
2019-05-18T11:04:40.271Z,412.62
2019-05-18T11:05:40.245Z,412.15
2019-05-18T11:06:40.231Z,412.41
2019-05-18T11:07:40.217Z,412.29
2019-05-18T11:08:40.199Z,412.55
2019-05-18T11:09:40.188Z,412.64
2019-05-18T11:10:40.175Z,412.05
2019-05-18T11:11:40.184Z,412.74
2019-05-18T11:12:40.171Z,412.35
2019-05-18T11:13:40.144Z,412.46
2019-05-18T11:14:40.148Z,412.56
2019-05-18T11:15:40.137Z,412.29
2019-05-18T11:16:40.107Z,412.53
2019-05-18T11:17:40.153Z,412.57
2019-05-18T11:18:40.085Z,412.17
2019-05-18T11:19:40.082Z,412.42
2019-05-18T11:20:40.074Z,412.83
2019-05-18T11:21:40.059Z,412.58
2019-05-18T11:22:40.048Z,412.66
2019-05-18T11:23:44.145Z,412.48
2019-05-18T11:24:40.024Z,412.48
2019-05-18T11:25:40.009Z,412.52
2019-05-18T11:26:40.000Z,412.60
2019-05-18T11:27:39.989Z,412.82
2019-05-18T11:28:39.989Z,412.44
2019-05-18T11:29:39.992Z,412.60
2019-05-18T11:30:39.955Z,412.74
2019-05-18T11:31:39.946Z,412.57
2019-05-18T11:32:39.952Z,412.61
2019-05-18T11:33:39.921Z,412.06
2019-05-18T11:34:39.924Z,413.11
2019-05-18T11:35:39.898Z,412.62
2019-05-18T11:36:39.886Z,412.58
2019-05-18T11:37:39.875Z,412.62
2019-05-18T11:38:39.889Z,412.52
2019-05-18T11:39:39.885Z,412.89
2019-05-18T11:40:39.858Z,412.38
2019-05-18T11:41:39.830Z,412.64
2019-05-18T11:42:39.823Z,412.22
2019-05-18T11:43:39.851Z,412.97
2019-05-18T11:44:39.794Z,412.10
2019-05-18T11:45:39.800Z,411.98
2019-05-18T11:46:39.802Z,412.72
2019-05-18T11:47:39.767Z,412.88
2019-05-18T11:48:39.820Z,412.68
2019-05-18T11:49:39.736Z,411.99
2019-05-18T11:50:39.735Z,412.57
2019-05-18T11:51:39.732Z,411.91
2019-05-18T11:52:39.706Z,412.21
2019-05-18T11:53:39.700Z,412.20
2019-05-18T11:54:39.694Z,412.41
2019-05-18T11:55:39.679Z,411.86
2019-05-18T11:56:39.662Z,412.59
2019-05-18T11:57:39.666Z,412.12
2019-05-18T11:58:39.642Z,411.97
2019-05-18T11:59:39.633Z,412.47
2019-05-18T12:00:39.622Z,412.11
2019-05-18T12:01:39.608Z,412.15
2019-05-18T12:02:39.606Z,412.48
2019-05-18T12:03:39.589Z,412.20
2019-05-18T12:04:39.577Z,412.18
2019-05-18T12:05:39.561Z,411.77
2019-05-18T12:06:39.620Z,411.92
2019-05-18T12:07:39.543Z,412.31
2019-05-18T12:08:39.539Z,411.77
2019-05-18T12:09:39.515Z,412.36
2019-05-18T12:10:39.509Z,411.62
2019-05-18T12:11:39.498Z,411.84
2019-05-18T12:12:39.493Z,411.99
2019-05-18T12:13:39.481Z,411.35
2019-05-18T12:14:39.463Z,412.06
2019-05-18T12:15:39.448Z,411.71
2019-05-18T12:16:39.445Z,412.12
2019-05-18T12:17:39.441Z,411.60
2019-05-18T12:18:39.423Z,411.87
2019-05-18T12:19:39.449Z,411.87
2019-05-18T12:20:39.396Z,411.78
2019-05-18T12:21:39.383Z,411.45
2019-05-18T12:22:39.371Z,411.68
2019-05-18T12:23:39.354Z,411.33
2019-05-18T12:24:39.347Z,411.53
2019-05-18T12:25:39.332Z,411.39
2019-05-18T12:26:39.324Z,412.46
2019-05-18T12:27:39.615Z,411.10
2019-05-18T12:28:39.323Z,411.38